sensor_id;sensor_type;location;lat;lon;timestamp;P1;durP1;ratioP1;P2;durP2;ratioP2
55718;SDS011;41623;46.104;19.656;2022-10-19T00:00:26;28.27;;;12.13;;
55718;SDS011;41623;46.104;19.656;2022-10-19T00:02:52;30.50;;;13.10;;
55718;SDS011;41623;46.104;19.656;2022-10-19T00:05:18;35.03;;;13.40;;
55718;SDS011;41623;46.104;19.656;2022-10-19T00:07:44;28.45;;;13.27;;
55718;SDS011;41623;46.104;19.656;2022-10-19T00:10:10;30.73;;;12.38;;
55718;SDS011;41623;46.104;19.656;2022-10-19T00:12:35;23.60;;;11.57;;
55718;SDS011;41623;46.104;19.656;2022-10-19T00:15:01;30.17;;;14.07;;
55718;SDS011;41623;46.104;19.656;2022-10-19T00:17:29;29.60;;;11.52;;
55718;SDS011;41623;46.104;19.656;2022-10-19T00:19:54;25.38;;;10.70;;
55718;SDS011;41623;46.104;19.656;2022-10-19T00:22:20;24.60;;;11.13;;
55718;SDS011;41623;46.104;19.656;2022-10-19T00:24:46;22.60;;;10.13;;
55718;SDS011;41623;46.104;19.656;2022-10-19T00:27:11;25.42;;;9.70;;
55718;SDS011;41623;46.104;19.656;2022-10-19T00:29:37;24.38;;;9.48;;
55718;SDS011;41623;46.104;19.656;2022-10-19T00:32:03;18.73;;;9.93;;
55718;SDS011;41623;46.104;19.656;2022-10-19T00:34:29;17.05;;;8.60;;
55718;SDS011;41623;46.104;19.656;2022-10-19T00:36:55;27.40;;;10.75;;
55718;SDS011;41623;46.104;19.656;2022-10-19T00:39:20;18.75;;;9.82;;
55718;SDS011;41623;46.104;19.656;2022-10-19T00:41:47;24.75;;;9.95;;
55718;SDS011;41623;46.104;19.656;2022-10-19T00:46:43;20.70;;;9.70;;
55718;SDS011;41623;46.104;19.656;2022-10-19T00:51:36;24.45;;;10.25;;
55718;SDS011;41623;46.104;19.656;2022-10-19T00:54:05;20.30;;;9.32;;
55718;SDS011;41623;46.104;19.656;2022-10-19T00:56:33;25.55;;;10.80;;
55718;SDS011;41623;46.104;19.656;2022-10-19T00:59:01;31.42;;;11.57;;
55718;SDS011;41623;46.104;19.656;2022-10-19T01:01:28;21.85;;;10.82;;
55718;SDS011;41623;46.104;19.656;2022-10-19T01:03:56;22.77;;;9.73;;
55718;SDS011;41623;46.104;19.656;2022-10-19T01:06:23;21.38;;;8.93;;
55718;SDS011;41623;46.104;19.656;2022-10-19T01:08:49;19.55;;;7.93;;
55718;SDS011;41623;46.104;19.656;2022-10-19T01:16:52;21.23;;;7.82;;
55718;SDS011;41623;46.104;19.656;2022-10-19T01:22:58;17.10;;;7.65;;
55718;SDS011;41623;46.104;19.656;2022-10-19T01:25:18;15.45;;;6.78;;
55718;SDS011;41623;46.104;19.656;2022-10-19T01:30:56;14.82;;;7.55;;
55718;SDS011;41623;46.104;19.656;2022-10-19T01:41:49;8.40;;;4.95;;
55718;SDS011;41623;46.104;19.656;2022-10-19T01:47:07;12.73;;;5.38;;
55718;SDS011;41623;46.104;19.656;2022-10-19T01:49:39;14.23;;;7.32;;
55718;SDS011;41623;46.104;19.656;2022-10-19T01:52:29;11.35;;;5.30;;
55718;SDS011;41623;46.104;19.656;2022-10-19T01:54:56;12.13;;;7.00;;
55718;SDS011;41623;46.104;19.656;2022-10-19T01:57:44;21.13;;;5.95;;
55718;SDS011;41623;46.104;19.656;2022-10-19T02:00:12;13.73;;;6.32;;
55718;SDS011;41623;46.104;19.656;2022-10-19T02:02:47;12.35;;;5.57;;
55718;SDS011;41623;46.104;19.656;2022-10-19T02:05:15;7.13;;;4.93;;
55718;SDS011;41623;46.104;19.656;2022-10-19T02:07:45;13.82;;;6.70;;
55718;SDS011;41623;46.104;19.656;2022-10-19T02:10:14;18.38;;;7.38;;
55718;SDS011;41623;46.104;19.656;2022-10-19T02:12:40;13.85;;;6.30;;
55718;SDS011;41623;46.104;19.656;2022-10-19T02:15:11;10.02;;;5.75;;
55718;SDS011;41623;46.104;19.656;2022-10-19T02:17:43;14.80;;;6.00;;
55718;SDS011;41623;46.104;19.656;2022-10-19T02:20:13;9.07;;;4.93;;
55718;SDS011;41623;46.104;19.656;2022-10-19T02:22:39;12.60;;;5.35;;
55718;SDS011;41623;46.104;19.656;2022-10-19T02:25:06;15.05;;;5.05;;
55718;SDS011;41623;46.104;19.656;2022-10-19T02:27:33;7.28;;;4.10;;
55718;SDS011;41623;46.104;19.656;2022-10-19T02:30:00;7.05;;;4.05;;
55718;SDS011;41623;46.104;19.656;2022-10-19T02:32:27;8.85;;;5.00;;
55718;SDS011;41623;46.104;19.656;2022-10-19T02:34:53;11.50;;;5.57;;
55718;SDS011;41623;46.104;19.656;2022-10-19T02:37:19;11.55;;;4.55;;
55718;SDS011;41623;46.104;19.656;2022-10-19T02:39:45;8.65;;;4.35;;
55718;SDS011;41623;46.104;19.656;2022-10-19T02:42:11;11.98;;;4.72;;
55718;SDS011;41623;46.104;19.656;2022-10-19T02:44:44;9.27;;;4.38;;
55718;SDS011;41623;46.104;19.656;2022-10-19T02:47:19;8.07;;;4.78;;
55718;SDS011;41623;46.104;19.656;2022-10-19T02:49:51;5.68;;;3.50;;
55718;SDS011;41623;46.104;19.656;2022-10-19T02:52:18;10.15;;;5.05;;
55718;SDS011;41623;46.104;19.656;2022-10-19T02:54:44;10.05;;;4.70;;
55718;SDS011;41623;46.104;19.656;2022-10-19T02:57:19;6.75;;;5.10;;
55718;SDS011;41623;46.104;19.656;2022-10-19T02:59:47;11.13;;;5.40;;
55718;SDS011;41623;46.104;19.656;2022-10-19T03:02:14;10.50;;;5.88;;
55718;SDS011;41623;46.104;19.656;2022-10-19T03:04:40;12.50;;;6.15;;
55718;SDS011;41623;46.104;19.656;2022-10-19T03:07:10;12.52;;;5.45;;
55718;SDS011;41623;46.104;19.656;2022-10-19T03:09:38;6.80;;;4.63;;
55718;SDS011;41623;46.104;19.656;2022-10-19T03:12:04;11.32;;;5.68;;
55718;SDS011;41623;46.104;19.656;2022-10-19T03:14:30;10.45;;;4.40;;
55718;SDS011;41623;46.104;19.656;2022-10-19T03:16:56;11.15;;;4.32;;
55718;SDS011;41623;46.104;19.656;2022-10-19T03:19:22;11.05;;;4.50;;
55718;SDS011;41623;46.104;19.656;2022-10-19T03:21:48;10.57;;;4.95;;
55718;SDS011;41623;46.104;19.656;2022-10-19T03:24:14;8.05;;;5.22;;
55718;SDS011;41623;46.104;19.656;2022-10-19T03:26:39;9.50;;;5.38;;
55718;SDS011;41623;46.104;19.656;2022-10-19T03:29:05;7.13;;;4.25;;
55718;SDS011;41623;46.104;19.656;2022-10-19T03:31:31;10.93;;;5.13;;
55718;SDS011;41623;46.104;19.656;2022-10-19T03:33:56;11.48;;;5.13;;
55718;SDS011;41623;46.104;19.656;2022-10-19T03:36:23;8.23;;;5.38;;
55718;SDS011;41623;46.104;19.656;2022-10-19T03:38:57;8.38;;;4.95;;
55718;SDS011;41623;46.104;19.656;2022-10-19T03:41:26;12.90;;;4.95;;
55718;SDS011;41623;46.104;19.656;2022-10-19T03:43:53;9.52;;;5.80;;
55718;SDS011;41623;46.104;19.656;2022-10-19T03:46:20;10.02;;;6.28;;
55718;SDS011;41623;46.104;19.656;2022-10-19T03:48:46;9.73;;;5.10;;
55718;SDS011;41623;46.104;19.656;2022-10-19T03:51:16;13.43;;;6.07;;
55718;SDS011;41623;46.104;19.656;2022-10-19T03:53:46;15.05;;;6.22;;
55718;SDS011;41623;46.104;19.656;2022-10-19T03:56:16;11.35;;;6.93;;
55718;SDS011;41623;46.104;19.656;2022-10-19T03:58:44;25.45;;;6.15;;
55718;SDS011;41623;46.104;19.656;2022-10-19T04:01:13;10.55;;;6.20;;
55718;SDS011;41623;46.104;19.656;2022-10-19T04:03:40;8.27;;;5.38;;
55718;SDS011;41623;46.104;19.656;2022-10-19T04:06:07;13.60;;;6.70;;
55718;SDS011;41623;46.104;19.656;2022-10-19T04:08:37;18.88;;;6.05;;
55718;SDS011;41623;46.104;19.656;2022-10-19T04:11:05;11.93;;;6.40;;
55718;SDS011;41623;46.104;19.656;2022-10-19T04:13:38;9.88;;;5.32;;
55718;SDS011;41623;46.104;19.656;2022-10-19T04:16:04;13.32;;;5.78;;
55718;SDS011;41623;46.104;19.656;2022-10-19T04:18:31;13.43;;;6.03;;
55718;SDS011;41623;46.104;19.656;2022-10-19T04:21:00;8.20;;;4.80;;
55718;SDS011;41623;46.104;19.656;2022-10-19T04:23:28;17.30;;;7.03;;
55718;SDS011;41623;46.104;19.656;2022-10-19T04:26:06;15.25;;;6.10;;
55718;SDS011;41623;46.104;19.656;2022-10-19T04:28:32;11.57;;;5.35;;
55718;SDS011;41623;46.104;19.656;2022-10-19T04:31:02;15.98;;;6.93;;
55718;SDS011;41623;46.104;19.656;2022-10-19T04:33:28;15.30;;;6.82;;
55718;SDS011;41623;46.104;19.656;2022-10-19T04:35:58;13.45;;;6.53;;
55718;SDS011;41623;46.104;19.656;2022-10-19T04:38:25;11.27;;;6.65;;
55718;SDS011;41623;46.104;19.656;2022-10-19T04:40:51;10.43;;;5.60;;
55718;SDS011;41623;46.104;19.656;2022-10-19T04:43:17;11.27;;;5.45;;
55718;SDS011;41623;46.104;19.656;2022-10-19T04:45:42;9.50;;;4.72;;
55718;SDS011;41623;46.104;19.656;2022-10-19T04:48:08;11.48;;;5.65;;
55718;SDS011;41623;46.104;19.656;2022-10-19T04:50:34;16.23;;;4.82;;
55718;SDS011;41623;46.104;19.656;2022-10-19T04:52:59;8.00;;;5.25;;
55718;SDS011;41623;46.104;19.656;2022-10-19T04:55:25;13.65;;;5.85;;
55718;SDS011;41623;46.104;19.656;2022-10-19T04:57:51;9.65;;;6.18;;
55718;SDS011;41623;46.104;19.656;2022-10-19T05:00:17;10.95;;;5.80;;
55718;SDS011;41623;46.104;19.656;2022-10-19T05:02:43;13.23;;;5.50;;
55718;SDS011;41623;46.104;19.656;2022-10-19T05:05:09;9.90;;;6.05;;
55718;SDS011;41623;46.104;19.656;2022-10-19T05:07:35;15.52;;;6.45;;
55718;SDS011;41623;46.104;19.656;2022-10-19T05:10:01;9.60;;;5.03;;
55718;SDS011;41623;46.104;19.656;2022-10-19T05:12:27;9.88;;;5.75;;
55718;SDS011;41623;46.104;19.656;2022-10-19T05:14:53;16.88;;;6.60;;
55718;SDS011;41623;46.104;19.656;2022-10-19T05:17:18;12.57;;;5.35;;
55718;SDS011;41623;46.104;19.656;2022-10-19T05:19:44;10.68;;;5.63;;
55718;SDS011;41623;46.104;19.656;2022-10-19T05:22:10;12.10;;;5.18;;
55718;SDS011;41623;46.104;19.656;2022-10-19T05:24:36;9.60;;;4.82;;
55718;SDS011;41623;46.104;19.656;2022-10-19T05:27:01;13.60;;;5.82;;
55718;SDS011;41623;46.104;19.656;2022-10-19T05:29:27;10.88;;;6.18;;
55718;SDS011;41623;46.104;19.656;2022-10-19T05:31:53;12.20;;;6.00;;
55718;SDS011;41623;46.104;19.656;2022-10-19T05:34:18;15.05;;;6.70;;
55718;SDS011;41623;46.104;19.656;2022-10-19T05:36:44;17.42;;;7.57;;
55718;SDS011;41623;46.104;19.656;2022-10-19T05:39:14;11.48;;;6.95;;
55718;SDS011;41623;46.104;19.656;2022-10-19T05:41:44;16.38;;;8.18;;
55718;SDS011;41623;46.104;19.656;2022-10-19T05:44:18;11.43;;;5.90;;
55718;SDS011;41623;46.104;19.656;2022-10-19T05:46:45;13.00;;;5.57;;
55718;SDS011;41623;46.104;19.656;2022-10-19T05:49:11;12.05;;;5.45;;
55718;SDS011;41623;46.104;19.656;2022-10-19T05:51:38;8.68;;;5.18;;
55718;SDS011;41623;46.104;19.656;2022-10-19T05:54:04;11.88;;;5.20;;
55718;SDS011;41623;46.104;19.656;2022-10-19T05:56:31;11.93;;;5.40;;
55718;SDS011;41623;46.104;19.656;2022-10-19T05:58:58;10.32;;;5.88;;
55718;SDS011;41623;46.104;19.656;2022-10-19T06:01:26;12.07;;;6.93;;
55718;SDS011;41623;46.104;19.656;2022-10-19T06:03:54;11.32;;;5.43;;
55718;SDS011;41623;46.104;19.656;2022-10-19T06:06:21;16.27;;;8.00;;
55718;SDS011;41623;46.104;19.656;2022-10-19T06:08:47;9.00;;;5.70;;
55718;SDS011;41623;46.104;19.656;2022-10-19T06:11:17;10.07;;;5.25;;
55718;SDS011;41623;46.104;19.656;2022-10-19T06:13:48;8.45;;;5.40;;
55718;SDS011;41623;46.104;19.656;2022-10-19T06:16:14;7.80;;;5.20;;
55718;SDS011;41623;46.104;19.656;2022-10-19T06:18:41;11.77;;;5.15;;
55718;SDS011;41623;46.104;19.656;2022-10-19T06:21:09;8.77;;;5.00;;
55718;SDS011;41623;46.104;19.656;2022-10-19T06:23:36;8.15;;;4.88;;
55718;SDS011;41623;46.104;19.656;2022-10-19T06:26:03;8.38;;;5.15;;
55718;SDS011;41623;46.104;19.656;2022-10-19T06:28:38;8.73;;;4.55;;
55718;SDS011;41623;46.104;19.656;2022-10-19T06:31:05;12.38;;;6.00;;
55718;SDS011;41623;46.104;19.656;2022-10-19T06:33:32;12.02;;;6.22;;
55718;SDS011;41623;46.104;19.656;2022-10-19T06:36:07;9.63;;;5.55;;
55718;SDS011;41623;46.104;19.656;2022-10-19T06:38:38;14.05;;;5.95;;
55718;SDS011;41623;46.104;19.656;2022-10-19T06:41:05;16.73;;;5.90;;
55718;SDS011;41623;46.104;19.656;2022-10-19T06:43:31;14.88;;;6.45;;
55718;SDS011;41623;46.104;19.656;2022-10-19T06:45:58;11.25;;;5.53;;
55718;SDS011;41623;46.104;19.656;2022-10-19T06:48:27;6.47;;;4.43;;
55718;SDS011;41623;46.104;19.656;2022-10-19T06:50:59;7.50;;;4.75;;
55718;SDS011;41623;46.104;19.656;2022-10-19T06:53:26;7.75;;;4.30;;
55718;SDS011;41623;46.104;19.656;2022-10-19T06:55:56;6.63;;;4.13;;
55718;SDS011;41623;46.104;19.656;2022-10-19T06:58:23;10.70;;;5.68;;
55718;SDS011;41623;46.104;19.656;2022-10-19T07:00:55;9.82;;;4.90;;
55718;SDS011;41623;46.104;19.656;2022-10-19T07:03:25;9.35;;;5.10;;
55718;SDS011;41623;46.104;19.656;2022-10-19T07:06:01;6.95;;;4.95;;
55718;SDS011;41623;46.104;19.656;2022-10-19T07:08:29;9.27;;;4.43;;
55718;SDS011;41623;46.104;19.656;2022-10-19T07:10:56;9.30;;;4.85;;
55718;SDS011;41623;46.104;19.656;2022-10-19T07:13:24;9.13;;;5.50;;
55718;SDS011;41623;46.104;19.656;2022-10-19T07:15:58;8.57;;;4.85;;
55718;SDS011;41623;46.104;19.656;2022-10-19T07:18:26;9.10;;;4.13;;
55718;SDS011;41623;46.104;19.656;2022-10-19T07:20:59;8.13;;;4.18;;
55718;SDS011;41623;46.104;19.656;2022-10-19T07:23:27;7.72;;;4.85;;
55718;SDS011;41623;46.104;19.656;2022-10-19T07:25:55;8.70;;;4.95;;
55718;SDS011;41623;46.104;19.656;2022-10-19T07:28:26;12.13;;;5.00;;
55718;SDS011;41623;46.104;19.656;2022-10-19T07:30:53;10.02;;;5.20;;
55718;SDS011;41623;46.104;19.656;2022-10-19T07:33:19;7.18;;;4.70;;
55718;SDS011;41623;46.104;19.656;2022-10-19T07:35:45;10.85;;;4.57;;
55718;SDS011;41623;46.104;19.656;2022-10-19T07:38:10;9.82;;;4.95;;
55718;SDS011;41623;46.104;19.656;2022-10-19T07:40:36;6.50;;;4.22;;
55718;SDS011;41623;46.104;19.656;2022-10-19T07:43:02;9.13;;;5.13;;
55718;SDS011;41623;46.104;19.656;2022-10-19T07:45:28;10.23;;;4.45;;
55718;SDS011;41623;46.104;19.656;2022-10-19T07:47:54;9.38;;;5.50;;
55718;SDS011;41623;46.104;19.656;2022-10-19T07:50:20;11.02;;;5.10;;
55718;SDS011;41623;46.104;19.656;2022-10-19T07:52:50;8.25;;;4.63;;
55718;SDS011;41623;46.104;19.656;2022-10-19T07:55:16;9.40;;;3.83;;
55718;SDS011;41623;46.104;19.656;2022-10-19T07:57:42;10.43;;;6.15;;
55718;SDS011;41623;46.104;19.656;2022-10-19T08:00:10;9.25;;;4.30;;
55718;SDS011;41623;46.104;19.656;2022-10-19T08:02:36;6.38;;;3.67;;
55718;SDS011;41623;46.104;19.656;2022-10-19T08:05:02;9.98;;;5.40;;
55718;SDS011;41623;46.104;19.656;2022-10-19T08:07:28;7.68;;;5.00;;
55718;SDS011;41623;46.104;19.656;2022-10-19T08:09:56;11.50;;;4.95;;
55718;SDS011;41623;46.104;19.656;2022-10-19T08:12:22;8.02;;;4.57;;
55718;SDS011;41623;46.104;19.656;2022-10-19T08:14:47;6.38;;;3.88;;
55718;SDS011;41623;46.104;19.656;2022-10-19T08:17:14;9.32;;;4.22;;
55718;SDS011;41623;46.104;19.656;2022-10-19T08:19:41;7.25;;;4.32;;
55718;SDS011;41623;46.104;19.656;2022-10-19T08:22:08;17.95;;;6.47;;
55718;SDS011;41623;46.104;19.656;2022-10-19T08:24:34;10.48;;;5.45;;
55718;SDS011;41623;46.104;19.656;2022-10-19T08:27:00;8.13;;;3.97;;
55718;SDS011;41623;46.104;19.656;2022-10-19T08:29:27;9.68;;;4.13;;
55718;SDS011;41623;46.104;19.656;2022-10-19T08:31:52;6.38;;;3.45;;
55718;SDS011;41623;46.104;19.656;2022-10-19T08:34:19;8.35;;;4.25;;
55718;SDS011;41623;46.104;19.656;2022-10-19T08:36:45;8.82;;;3.85;;
55718;SDS011;41623;46.104;19.656;2022-10-19T08:39:11;10.27;;;4.68;;
55718;SDS011;41623;46.104;19.656;2022-10-19T08:49:37;7.25;;;3.17;;
55718;SDS011;41623;46.104;19.656;2022-10-19T08:52:23;5.88;;;4.57;;
55718;SDS011;41623;46.104;19.656;2022-10-19T09:05:11;12.60;;;5.63;;
55718;SDS011;41623;46.104;19.656;2022-10-19T09:07:54;8.13;;;3.97;;
55718;SDS011;41623;46.104;19.656;2022-10-19T09:10:22;8.45;;;4.45;;
55718;SDS011;41623;46.104;19.656;2022-10-19T09:12:58;14.68;;;5.88;;
55718;SDS011;41623;46.104;19.656;2022-10-19T09:15:28;7.75;;;4.40;;
55718;SDS011;41623;46.104;19.656;2022-10-19T09:20:47;9.65;;;5.15;;
55718;SDS011;41623;46.104;19.656;2022-10-19T09:23:52;4.70;;;3.67;;
55718;SDS011;41623;46.104;19.656;2022-10-19T09:26:28;4.50;;;3.22;;
55718;SDS011;41623;46.104;19.656;2022-10-19T09:29:10;5.13;;;3.80;;
55718;SDS011;41623;46.104;19.656;2022-10-19T09:32:11;10.25;;;4.57;;
55718;SDS011;41623;46.104;19.656;2022-10-19T09:37:48;9.98;;;4.90;;
55718;SDS011;41623;46.104;19.656;2022-10-19T09:40:21;12.43;;;5.43;;
55718;SDS011;41623;46.104;19.656;2022-10-19T09:42:51;10.35;;;5.25;;
55718;SDS011;41623;46.104;19.656;2022-10-19T09:48:31;9.23;;;5.32;;
55718;SDS011;41623;46.104;19.656;2022-10-19T09:51:02;9.48;;;4.75;;
55718;SDS011;41623;46.104;19.656;2022-10-19T09:53:35;8.45;;;4.60;;
55718;SDS011;41623;46.104;19.656;2022-10-19T09:56:03;8.15;;;4.35;;
55718;SDS011;41623;46.104;19.656;2022-10-19T09:58:33;8.02;;;4.50;;
55718;SDS011;41623;46.104;19.656;2022-10-19T10:00:59;8.43;;;4.20;;
55718;SDS011;41623;46.104;19.656;2022-10-19T10:03:34;8.23;;;4.20;;
55718;SDS011;41623;46.104;19.656;2022-10-19T10:08:35;16.15;;;5.90;;
55718;SDS011;41623;46.104;19.656;2022-10-19T10:13:42;10.48;;;4.05;;
55718;SDS011;41623;46.104;19.656;2022-10-19T10:16:14;7.80;;;4.47;;
55718;SDS011;41623;46.104;19.656;2022-10-19T10:19:04;9.32;;;5.03;;
55718;SDS011;41623;46.104;19.656;2022-10-19T10:21:33;8.30;;;3.90;;
55718;SDS011;41623;46.104;19.656;2022-10-19T10:24:28;8.98;;;4.55;;
55718;SDS011;41623;46.104;19.656;2022-10-19T10:26:59;5.70;;;3.97;;
55718;SDS011;41623;46.104;19.656;2022-10-19T10:29:27;6.90;;;4.15;;
55718;SDS011;41623;46.104;19.656;2022-10-19T10:32:02;7.20;;;4.93;;
55718;SDS011;41623;46.104;19.656;2022-10-19T10:34:39;13.20;;;4.68;;
55718;SDS011;41623;46.104;19.656;2022-10-19T10:37:45;9.63;;;4.13;;
55718;SDS011;41623;46.104;19.656;2022-10-19T10:40:23;4.82;;;3.30;;
55718;SDS011;41623;46.104;19.656;2022-10-19T10:42:52;10.43;;;5.50;;
55718;SDS011;41623;46.104;19.656;2022-10-19T10:45:26;6.20;;;3.80;;
55718;SDS011;41623;46.104;19.656;2022-10-19T10:47:56;5.63;;;3.95;;
55718;SDS011;41623;46.104;19.656;2022-10-19T10:50:25;6.15;;;3.88;;
55718;SDS011;41623;46.104;19.656;2022-10-19T10:53:00;4.83;;;3.33;;
55718;SDS011;41623;46.104;19.656;2022-10-19T10:55:31;4.93;;;3.40;;
55718;SDS011;41623;46.104;19.656;2022-10-19T10:58:01;4.47;;;2.42;;
55718;SDS011;41623;46.104;19.656;2022-10-19T11:00:38;3.90;;;2.42;;
55718;SDS011;41623;46.104;19.656;2022-10-19T11:03:12;9.25;;;3.25;;
55718;SDS011;41623;46.104;19.656;2022-10-19T11:05:52;5.68;;;4.13;;
55718;SDS011;41623;46.104;19.656;2022-10-19T11:08:25;7.30;;;3.88;;
55718;SDS011;41623;46.104;19.656;2022-10-19T11:11:10;6.32;;;3.38;;
55718;SDS011;41623;46.104;19.656;2022-10-19T11:16:27;5.38;;;2.92;;
55718;SDS011;41623;46.104;19.656;2022-10-19T11:19:09;13.25;;;3.08;;
55718;SDS011;41623;46.104;19.656;2022-10-19T11:30:19;5.63;;;3.08;;
55718;SDS011;41623;46.104;19.656;2022-10-19T11:33:00;5.95;;;3.13;;
55718;SDS011;41623;46.104;19.656;2022-10-19T11:35:55;4.93;;;3.03;;
55718;SDS011;41623;46.104;19.656;2022-10-19T11:41:56;6.25;;;3.03;;
55718;SDS011;41623;46.104;19.656;2022-10-19T11:58:06;6.55;;;3.83;;
55718;SDS011;41623;46.104;19.656;2022-10-19T12:00:52;5.10;;;3.15;;
55718;SDS011;41623;46.104;19.656;2022-10-19T12:06:22;5.65;;;3.63;;
55718;SDS011;41623;46.104;19.656;2022-10-19T12:11:24;9.80;;;2.97;;
55718;SDS011;41623;46.104;19.656;2022-10-19T12:14:12;4.80;;;2.75;;
55718;SDS011;41623;46.104;19.656;2022-10-19T12:16:43;18.98;;;3.55;;
55718;SDS011;41623;46.104;19.656;2022-10-19T12:19:15;5.75;;;3.28;;
55718;SDS011;41623;46.104;19.656;2022-10-19T12:21:48;5.38;;;3.03;;
55718;SDS011;41623;46.104;19.656;2022-10-19T12:24:19;5.07;;;2.95;;
55718;SDS011;41623;46.104;19.656;2022-10-19T12:26:48;9.10;;;3.95;;
55718;SDS011;41623;46.104;19.656;2022-10-19T12:29:20;6.00;;;3.63;;
55718;SDS011;41623;46.104;19.656;2022-10-19T12:31:52;8.43;;;4.75;;
55718;SDS011;41623;46.104;19.656;2022-10-19T12:34:22;9.40;;;3.40;;
55718;SDS011;41623;46.104;19.656;2022-10-19T12:40:18;6.47;;;3.72;;
55718;SDS011;41623;46.104;19.656;2022-10-19T12:45:46;5.90;;;3.35;;
55718;SDS011;41623;46.104;19.656;2022-10-19T12:48:23;11.93;;;2.95;;
55718;SDS011;41623;46.104;19.656;2022-10-19T12:53:24;3.72;;;2.50;;
55718;SDS011;41623;46.104;19.656;2022-10-19T12:56:02;3.92;;;2.95;;
55718;SDS011;41623;46.104;19.656;2022-10-19T12:58:31;4.85;;;3.20;;
55718;SDS011;41623;46.104;19.656;2022-10-19T13:01:38;7.07;;;4.03;;
55718;SDS011;41623;46.104;19.656;2022-10-19T13:04:09;4.82;;;2.40;;
55718;SDS011;41623;46.104;19.656;2022-10-19T13:06:49;3.95;;;2.60;;
55718;SDS011;41623;46.104;19.656;2022-10-19T13:14:43;4.05;;;2.47;;
55718;SDS011;41623;46.104;19.656;2022-10-19T13:22:39;3.78;;;2.30;;
55718;SDS011;41623;46.104;19.656;2022-10-19T13:25:40;7.22;;;2.58;;
55718;SDS011;41623;46.104;19.656;2022-10-19T13:41:12;4.43;;;2.88;;
55718;SDS011;41623;46.104;19.656;2022-10-19T13:53:04;4.53;;;3.13;;
55718;SDS011;41623;46.104;19.656;2022-10-19T13:58:40;4.60;;;2.92;;
55718;SDS011;41623;46.104;19.656;2022-10-19T14:04:00;4.70;;;3.03;;
55718;SDS011;41623;46.104;19.656;2022-10-19T14:06:51;3.35;;;2.53;;
55718;SDS011;41623;46.104;19.656;2022-10-19T14:09:25;3.80;;;2.45;;
55718;SDS011;41623;46.104;19.656;2022-10-19T14:12:20;4.93;;;3.08;;
55718;SDS011;41623;46.104;19.656;2022-10-19T14:14:47;3.65;;;2.38;;
55718;SDS011;41623;46.104;19.656;2022-10-19T14:17:24;5.45;;;2.67;;
55718;SDS011;41623;46.104;19.656;2022-10-19T14:19:54;3.20;;;2.47;;
55718;SDS011;41623;46.104;19.656;2022-10-19T14:22:29;3.63;;;2.35;;
55718;SDS011;41623;46.104;19.656;2022-10-19T14:25:15;3.13;;;2.55;;
55718;SDS011;41623;46.104;19.656;2022-10-19T14:27:45;4.60;;;2.92;;
55718;SDS011;41623;46.104;19.656;2022-10-19T14:30:21;5.00;;;3.20;;
55718;SDS011;41623;46.104;19.656;2022-10-19T14:32:49;6.38;;;2.88;;
55718;SDS011;41623;46.104;19.656;2022-10-19T14:35:18;7.93;;;2.83;;
55718;SDS011;41623;46.104;19.656;2022-10-19T14:37:47;6.47;;;2.60;;
55718;SDS011;41623;46.104;19.656;2022-10-19T14:50:45;4.80;;;2.90;;
55718;SDS011;41623;46.104;19.656;2022-10-19T14:56:11;3.78;;;2.35;;
55718;SDS011;41623;46.104;19.656;2022-10-19T14:58:42;4.40;;;2.72;;
55718;SDS011;41623;46.104;19.656;2022-10-19T15:01:15;7.35;;;3.17;;
55718;SDS011;41623;46.104;19.656;2022-10-19T15:03:42;4.07;;;2.22;;
55718;SDS011;41623;46.104;19.656;2022-10-19T15:06:26;4.78;;;3.45;;
55718;SDS011;41623;46.104;19.656;2022-10-19T15:08:59;4.30;;;2.45;;
55718;SDS011;41623;46.104;19.656;2022-10-19T15:11:29;6.72;;;2.67;;
55718;SDS011;41623;46.104;19.656;2022-10-19T15:14:05;2.38;;;1.73;;
55718;SDS011;41623;46.104;19.656;2022-10-19T15:24:33;5.60;;;3.20;;
55718;SDS011;41623;46.104;19.656;2022-10-19T15:27:09;4.30;;;2.10;;
55718;SDS011;41623;46.104;19.656;2022-10-19T15:29:56;3.83;;;1.97;;
55718;SDS011;41623;46.104;19.656;2022-10-19T15:32:41;3.58;;;2.20;;
55718;SDS011;41623;46.104;19.656;2022-10-19T15:35:16;2.08;;;1.65;;
55718;SDS011;41623;46.104;19.656;2022-10-19T15:37:57;5.80;;;3.45;;
55718;SDS011;41623;46.104;19.656;2022-10-19T15:40:28;7.38;;;2.75;;
55718;SDS011;41623;46.104;19.656;2022-10-19T15:42:58;3.33;;;2.53;;
55718;SDS011;41623;46.104;19.656;2022-10-19T15:50:41;6.75;;;2.97;;
55718;SDS011;41623;46.104;19.656;2022-10-19T15:53:08;4.80;;;3.00;;
55718;SDS011;41623;46.104;19.656;2022-10-19T15:55:34;6.20;;;2.55;;
55718;SDS011;41623;46.104;19.656;2022-10-19T15:58:00;6.70;;;2.95;;
55718;SDS011;41623;46.104;19.656;2022-10-19T16:00:27;8.30;;;2.67;;
55718;SDS011;41623;46.104;19.656;2022-10-19T16:02:54;4.18;;;2.60;;
55718;SDS011;41623;46.104;19.656;2022-10-19T16:05:19;5.53;;;2.78;;
55718;SDS011;41623;46.104;19.656;2022-10-19T16:07:45;4.55;;;2.50;;
55718;SDS011;41623;46.104;19.656;2022-10-19T16:10:16;7.07;;;3.00;;
55718;SDS011;41623;46.104;19.656;2022-10-19T16:12:43;3.65;;;2.25;;
55718;SDS011;41623;46.104;19.656;2022-10-19T16:15:16;5.60;;;2.90;;
55718;SDS011;41623;46.104;19.656;2022-10-19T16:17:53;6.47;;;2.72;;
55718;SDS011;41623;46.104;19.656;2022-10-19T16:20:22;5.60;;;2.45;;
55718;SDS011;41623;46.104;19.656;2022-10-19T16:22:48;6.15;;;2.55;;
55718;SDS011;41623;46.104;19.656;2022-10-19T16:25:14;4.80;;;2.80;;
55718;SDS011;41623;46.104;19.656;2022-10-19T16:27:40;6.43;;;3.08;;
55718;SDS011;41623;46.104;19.656;2022-10-19T16:30:06;9.23;;;4.18;;
55718;SDS011;41623;46.104;19.656;2022-10-19T16:32:32;16.13;;;3.75;;
55718;SDS011;41623;46.104;19.656;2022-10-19T16:34:58;7.55;;;3.38;;
55718;SDS011;41623;46.104;19.656;2022-10-19T16:37:24;18.33;;;3.00;;
55718;SDS011;41623;46.104;19.656;2022-10-19T16:39:49;7.68;;;3.88;;
55718;SDS011;41623;46.104;19.656;2022-10-19T16:42:15;11.88;;;3.42;;
55718;SDS011;41623;46.104;19.656;2022-10-19T16:44:41;7.80;;;2.92;;
55718;SDS011;41623;46.104;19.656;2022-10-19T16:47:08;5.60;;;3.30;;
55718;SDS011;41623;46.104;19.656;2022-10-19T16:49:33;7.82;;;2.50;;
55718;SDS011;41623;46.104;19.656;2022-10-19T16:51:59;3.90;;;2.25;;
55718;SDS011;41623;46.104;19.656;2022-10-19T16:54:25;8.40;;;2.88;;
55718;SDS011;41623;46.104;19.656;2022-10-19T16:56:54;6.85;;;2.75;;
55718;SDS011;41623;46.104;19.656;2022-10-19T16:59:20;10.88;;;4.00;;
55718;SDS011;41623;46.104;19.656;2022-10-19T17:01:46;15.98;;;5.20;;
55718;SDS011;41623;46.104;19.656;2022-10-19T17:04:12;8.95;;;4.50;;
55718;SDS011;41623;46.104;19.656;2022-10-19T17:06:39;7.63;;;3.90;;
55718;SDS011;41623;46.104;19.656;2022-10-19T17:09:05;6.57;;;4.05;;
55718;SDS011;41623;46.104;19.656;2022-10-19T17:11:32;13.98;;;4.72;;
55718;SDS011;41623;46.104;19.656;2022-10-19T17:14:01;5.13;;;3.35;;
55718;SDS011;41623;46.104;19.656;2022-10-19T17:16:32;7.80;;;3.55;;
55718;SDS011;41623;46.104;19.656;2022-10-19T17:19:00;8.48;;;4.25;;
55718;SDS011;41623;46.104;19.656;2022-10-19T17:21:27;7.10;;;4.13;;
55718;SDS011;41623;46.104;19.656;2022-10-19T17:23:54;6.43;;;3.35;;
55718;SDS011;41623;46.104;19.656;2022-10-19T17:26:27;8.00;;;3.90;;
55718;SDS011;41623;46.104;19.656;2022-10-19T17:28:53;8.65;;;2.88;;
55718;SDS011;41623;46.104;19.656;2022-10-19T17:31:20;3.92;;;2.15;;
55718;SDS011;41623;46.104;19.656;2022-10-19T17:33:46;5.13;;;2.45;;